Time;durP1;ratioP1;P1;durP2;ratioP2;P2;SDS_P1;SDS_P2;PMS_P1;PMS_P2;Temp;Humidity;BMP_temperature;BMP_pressure;BME280_temperature;BME280_humidity;BME280_pressure;Samples;Min_cycle;Max_cycle;Signal;HPM_P1;HPM_P2
2023/08/12 00:08:38;;;;;;;7.15;4.22;;;;;;;21.55;48.62;100982.25;41454293;28;20124;-75
2023/08/12 00:28:38;;;;;;;9.13;4.18;;;;;;;21.39;48.74;100966.66;41463590;28;20421;-78
2023/08/12 00:48:40;;;;;;;7.97;4.60;;;;;;;21.21;49.22;100950.31;41464423;28;20069;-79
2023/08/12 01:08:40;;;;;;;7.85;3.78;;;;;;;21.01;49.28;100930.63;41383967;28;20031;-78
2023/08/12 01:28:40;;;;;;;6.38;3.33;;;;;;;21.11;48.58;100979.06;41319125;28;20511;-77
2023/08/12 01:48:41;;;;;;;6.25;3.42;;;;;;;20.87;49.27;100974.53;41322590;28;20047;-78
2023/08/12 02:08:41;;;;;;;4.40;3.25;;;;;;;20.74;49.97;100973.66;41472869;28;20074;-79
2023/08/12 02:28:42;;;;;;;5.88;3.28;;;;;;;20.76;49.54;100979.66;41470052;28;20153;-80
2023/08/12 02:48:43;;;;;;;5.80;3.50;;;;;;;20.57;50.09;100961.59;41463749;28;21436;-78
2023/08/12 03:08:43;;;;;;;4.60;3.60;;;;;;;20.53;50.54;100963.56;41462336;28;20042;-76
2023/08/12 03:28:44;;;;;;;5.45;3.58;;;;;;;20.46;50.49;100971.00;41460486;28;20050;-78
2023/08/12 03:48:44;;;;;;;6.03;3.28;;;;;;;20.39;50.58;100996.00;41443818;28;20157;-74
2023/08/12 04:08:45;;;;;;;6.00;3.03;;;;;;;20.31;50.25;100999.16;41327839;28;20050;-76
2023/08/12 04:28:46;;;;;;;5.53;3.17;;;;;;;20.47;49.33;100991.09;41285406;28;20062;-74
2023/08/12 04:48:52;;;;;;;6.55;3.00;;;;;;;20.58;49.75;101000.06;41285853;28;20410;-74
2023/08/12 05:08:52;;;;;;;3.58;2.40;;;;;;;21.26;47.69;100929.78;41319484;28;20065;-76
2023/08/12 05:28:53;;;;;;;4.45;2.90;;;;;;;21.90;47.87;101021.97;41439408;28;20069;-71
2023/08/12 05:48:54;;;;;;;5.28;2.67;;;;;;;22.14;47.23;101022.97;41507081;28;20068;-72
2023/08/12 06:08:54;;;;;;;2.70;2.38;;;;;;;22.21;47.28;101011.03;41484960;28;20437;-71
2023/08/12 06:28:54;;;;;;;3.88;2.50;;;;;;;22.25;47.17;101009.84;41382756;28;20042;-73
2023/08/12 06:48:55;;;;;;;2.65;2.20;;;;;;;22.24;46.87;100987.09;41478000;28;20133;-74
2023/08/12 07:08:56;;;;;;;2.40;2.15;;;;;;;22.27;46.59;100996.56;41475901;28;20053;-73
2023/08/12 07:28:56;;;;;;;3.17;2.20;;;;;;;22.35;46.58;100989.78;41356913;28;20046;-73
2023/08/12 07:48:57;;;;;;;4.93;2.22;;;;;;;22.47;47.02;100934.44;41351492;28;20054;-74
2023/08/12 08:08:57;;;;;;;4.32;2.13;;;;;;;22.90;48.38;100999.03;41435725;28;20092;-76
2023/08/12 08:28:58;;;;;;;19.25;5.35;;;;;;;22.84;49.06;100984.50;41428035;28;20133;-77
2023/08/12 08:48:59;;;;;;;16.25;5.32;;;;;;;22.82;48.21;100994.31;41469991;28;20498;-75
2023/08/12 09:09:02;;;;;;;14.90;4.95;;;;;;;22.63;48.34;100958.75;41471052;28;20046;-75
2023/08/12 09:29:03;;;;;;;14.55;4.68;;;;;;;22.85;48.19;100975.59;41463377;28;20132;-75
2023/08/12 09:49:04;;;;;;;10.40;4.22;;;;;;;22.71;48.06;100924.66;41475634;28;20045;-74
2023/08/12 10:09:08;;;;;;;9.70;4.40;;;;;;;22.99;47.75;100933.13;41498773;28;20140;-75
2023/08/12 10:29:09;;;;;;;10.30;4.05;;;;;;;23.12;47.41;100911.91;41501299;28;20042;-74
2023/08/12 10:49:10;;;;;;;7.93;3.60;;;;;;;23.25;47.29;100903.06;41500426;28;20100;-76
2023/08/12 11:09:12;;;;;;;7.57;3.17;;;;;;;23.25;47.40;100874.00;41516489;28;20065;-74
2023/08/12 11:29:13;;;;;;;5.60;2.90;;;;;;;23.54;46.98;100866.41;41490067;28;20132;-76
2023/08/12 11:49:13;;;;;;;3.97;2.10;;;;;;;23.73;46.67;100851.69;41493037;28;20054;-73
2023/08/12 12:09:15;;;;;;;2.85;2.10;;;;;;;23.40;46.43;100756.53;41491894;28;20728;-74
2023/08/12 12:29:15;;;;;;;3.97;2.38;;;;;;;23.80;46.33;100781.47;41498315;28;20054;-76
2023/08/12 12:49:16;;;;;;;3.42;1.80;;;;;;;24.18;46.03;100792.53;41481333;28;20030;-74
2023/08/12 13:09:16;;;;;;;2.67;1.83;;;;;;;24.11;46.04;100752.53;41476247;28;20042;-74
2023/08/12 13:29:17;;;;;;;2.97;1.90;;;;;;;24.39;45.71;100760.75;41497526;28;20060;-74
2023/08/12 13:49:17;;;;;;;1.88;1.50;;;;;;;24.50;45.52;100742.16;41495082;28;20050;-74
2023/08/12 14:09:19;;;;;;;2.28;1.67;;;;;;;24.46;45.43;100716.91;41485656;28;20060;-73
2023/08/12 14:29:21;;;;;;;2.95;1.65;;;;;;;24.58;45.46;100720.31;41477847;28;20076;-74
2023/08/12 14:49:21;;;;;;;2.13;1.58;;;;;;;24.59;45.56;100700.81;41472719;28;20128;-74
2023/08/12 15:09:22;;;;;;;3.35;1.60;;;;;;;24.50;45.80;100654.78;41493568;28;20045;-74
2023/08/12 15:29:22;;;;;;;1.67;1.42;;;;;;;24.69;45.75;100654.03;41501265;28;20064;-74
2023/08/12 15:49:24;;;;;;;1.85;1.50;;;;;;;24.66;45.52;100649.03;41496473;28;20048;-73
2023/08/12 16:09:25;;;;;;;1.75;1.55;;;;;;;24.68;45.27;100633.00;41497868;28;20037;-75
2023/08/12 16:29:27;;;;;;;1.48;1.25;;;;;;;24.64;45.84;100642.97;41491439;28;20050;-74
2023/08/12 16:49:27;;;;;;;1.40;1.30;;;;;;;24.18;46.17;100586.16;41492174;28;20074;-74
2023/08/12 17:09:30;;;;;;;2.28;1.45;;;;;;;24.20;46.26;100613.31;41498842;28;20038;-75
2023/08/12 17:29:30;;;;;;;1.85;1.42;;;;;;;24.20;46.44;100660.94;41353234;28;20057;-74
2023/08/12 17:49:31;;;;;;;1.30;1.20;;;;;;;24.07;46.66;100656.72;41353021;28;20046;-75
2023/08/12 18:09:31;;;;;;;1.63;1.38;;;;;;;24.02;46.75;100682.69;41371685;28;20038;-75
2023/08/12 18:29:32;;;;;;;1.30;1.20;;;;;;;23.94;47.10;100695.75;41342407;28;20116;-72
2023/08/12 18:49:32;;;;;;;1.40;1.30;;;;;;;23.88;47.05;100705.00;41350561;28;20525;-72
2023/08/12 19:09:33;;;;;;;2.17;1.60;;;;;;;23.84;47.02;100724.75;41328554;28;20042;-71
2023/08/12 19:29:33;;;;;;;1.40;1.30;;;;;;;23.82;47.16;100740.72;41345496;28;20425;-72
2023/08/12 19:49:34;;;;;;;1.60;1.50;;;;;;;23.82;46.98;100738.06;41333060;28;20478;-73
2023/08/12 20:09:35;;;;;;;1.45;1.30;;;;;;;23.62;47.01;100713.31;41321791;28;20125;-72
2023/08/12 20:29:36;;;;;;;1.80;1.42;;;;;;;23.73;47.22;100762.66;41469217;28;20038;-72
2023/08/12 20:49:36;;;;;;;1.75;1.50;;;;;;;23.70;47.42;100754.13;41439285;28;20402;-71
2023/08/12 21:09:37;;;;;;;1.58;1.40;;;;;;;23.71;47.05;100774.31;41326659;28;20127;-71
2023/08/12 21:29:37;;;;;;;2.28;1.50;;;;;;;23.71;47.29;100771.69;41327291;28;20049;-73
2023/08/12 21:49:38;;;;;;;1.40;1.30;;;;;;;23.61;47.25;100758.38;41498162;28;20038;-72
2023/08/12 22:09:39;;;;;;;1.60;1.50;;;;;;;23.57;47.40;100743.72;41514826;28;20033;-73
2023/08/12 22:29:42;;;;;;;1.67;1.50;;;;;;;23.33;47.37;100705.97;41518606;28;20049;-72
2023/08/12 22:49:42;;;;;;;1.70;1.58;;;;;;;23.36;47.21;100699.59;41507209;28;20470;-70
2023/08/12 23:09:42;;;;;;;1.73;1.60;;;;;;;23.62;47.29;100745.03;41491350;28;20061;-71
2023/08/12 23:29:43;;;;;;;1.55;1.45;;;;;;;23.56;47.78;100731.47;41487159;28;20048;-71
2023/08/12 23:49:43;;;;;;;2.42;2.00;;;;;;;23.49;47.43;100734.59;41471480;28;20074;-76
